Time;durP1;ratioP1;P1;durP2;ratioP2;P2;SDS_P1;SDS_P2;PMS_P1;PMS_P2;Temp;Humidity;BMP_temperature;BMP_pressure;BME280_temperature;BME280_humidity;BME280_pressure;Samples;Min_cycle;Max_cycle;Signal;HPM_P1;HPM_P2
2023/06/19 00:02:05;;;;;;;10.60;9.30;;;;;;;12.07;69.12;97196.17;108864;1251;95918;-73
2023/06/19 00:04:31;;;;;;;10.00;9.00;;;;;;;12.03;68.97;97194.96;108682;1251;95931;-74
2023/06/19 00:07:00;;;;;;;9.80;8.80;;;;;;;12.00;69.12;97193.50;108629;1251;101683;-75
2023/06/19 00:09:27;;;;;;;12.30;9.10;;;;;;;11.96;69.31;97196.63;108897;1251;99989;-73
2023/06/19 00:11:54;;;;;;;10.60;9.30;;;;;;;11.94;69.43;97191.23;108951;1250;95935;-73
2023/06/19 00:14:20;;;;;;;11.20;9.40;;;;;;;11.94;69.52;97190.71;108852;1251;95652;-73
2023/06/19 00:16:47;;;;;;;10.90;9.60;;;;;;;11.93;69.57;97195.41;108784;1251;95904;-74
2023/06/19 00:19:14;;;;;;;11.10;9.40;;;;;;;11.90;69.67;97196.43;108702;1251;95823;-74
2023/06/19 00:21:42;;;;;;;11.60;9.70;;;;;;;11.88;69.70;97195.24;108835;1251;95647;-74
2023/06/19 00:24:10;;;;;;;11.00;9.90;;;;;;;11.83;69.71;97196.88;108856;1249;96070;-73
2023/06/19 00:26:37;;;;;;;11.70;9.50;;;;;;;11.78;69.78;97197.85;108718;1251;103494;-73
2023/06/19 00:29:04;;;;;;;11.70;10.00;;;;;;;11.72;69.94;97198.13;108846;1251;95895;-73
2023/06/19 00:31:31;;;;;;;10.40;9.30;;;;;;;11.66;69.97;97195.95;108860;1249;96091;-73
2023/06/19 00:33:57;;;;;;;12.50;11.20;;;;;;;11.59;70.02;97199.55;108895;1250;95595;-73
2023/06/19 00:36:25;;;;;;;12.70;10.70;;;;;;;11.55;70.26;97200.67;108864;1251;95655;-73
2023/06/19 00:38:52;;;;;;;11.70;9.40;;;;;;;11.46;70.36;97199.14;108555;1250;95896;-72
2023/06/19 00:41:20;;;;;;;13.20;10.40;;;;;;;11.37;70.61;97198.14;108656;1251;95941;-74
2023/06/19 00:43:47;;;;;;;11.20;9.90;;;;;;;11.31;70.66;97196.65;108822;1250;95714;-73
2023/06/19 00:46:14;;;;;;;13.00;10.30;;;;;;;11.32;70.85;97199.71;108981;1249;95641;-74
2023/06/19 00:48:40;;;;;;;13.60;10.70;;;;;;;11.33;70.97;97198.02;108966;1250;103194;-74
2023/06/19 00:51:07;;;;;;;12.80;10.20;;;;;;;11.33;70.96;97196.39;108902;1251;95663;-73
2023/06/19 00:53:34;;;;;;;13.10;10.20;;;;;;;11.36;70.99;97191.65;108823;1250;95590;-72
2023/06/19 00:56:03;;;;;;;10.90;9.80;;;;;;;11.38;71.02;97189.39;108765;1251;95688;-74
2023/06/19 00:58:30;;;;;;;10.20;9.00;;;;;;;11.34;70.92;97188.48;108960;1250;96029;-73
2023/06/19 01:00:58;;;;;;;10.20;8.80;;;;;;;11.29;70.73;97187.06;108863;1251;95658;-73
2023/06/19 01:03:26;;;;;;;10.50;9.10;;;;;;;11.26;70.73;97191.70;108886;1251;101276;-73
2023/06/19 01:05:55;;;;;;;12.30;9.80;;;;;;;11.24;70.94;97188.80;108952;1251;99843;-73
2023/06/19 01:08:46;;;;;;;10.70;9.10;;;;;;;11.23;70.80;97191.64;108921;1251;95969;-73
2023/06/19 01:11:19;;;;;;;11.00;9.00;;;;;;;11.20;70.95;97193.13;108927;1251;96586;-72
2023/06/19 01:13:51;;;;;;;11.20;8.80;;;;;;;11.20;71.00;97195.75;108988;1251;103532;-73
2023/06/19 01:16:18;;;;;;;11.90;9.10;;;;;;;11.18;70.91;97197.46;108842;1251;101214;-74
2023/06/19 01:18:46;;;;;;;10.80;8.90;;;;;;;11.14;71.06;97197.77;108850;1250;99773;-74
2023/06/19 01:21:15;;;;;;;14.00;10.00;;;;;;;11.11;71.04;97195.08;108965;1251;95686;-75
2023/06/19 01:23:42;;;;;;;12.60;9.90;;;;;;;11.10;71.24;97198.19;108840;1251;95586;-73
2023/06/19 01:26:09;;;;;;;12.60;9.60;;;;;;;11.08;71.07;97196.46;108630;1257;95690;-73
2023/06/19 01:28:38;;;;;;;13.10;10.40;;;;;;;11.05;71.23;97191.87;108917;1251;95871;-74
2023/06/19 01:31:11;;;;;;;10.00;8.90;;;;;;;11.04;71.29;97194.59;108472;1252;99895;-73
2023/06/19 01:33:40;;;;;;;12.70;9.60;;;;;;;11.02;71.30;97197.03;108920;1250;95988;-73
2023/06/19 01:36:08;;;;;;;11.00;9.40;;;;;;;11.00;71.42;97194.84;108878;1251;96074;-73
2023/06/19 01:38:35;;;;;;;11.40;9.70;;;;;;;11.00;71.45;97188.20;108573;1254;95659;-74
2023/06/19 01:41:04;;;;;;;11.10;9.80;;;;;;;10.98;71.53;97193.64;108810;1251;101482;-73
2023/06/19 01:43:32;;;;;;;10.90;9.70;;;;;;;10.96;71.59;97193.77;108887;1250;99505;-75
2023/06/19 01:46:00;;;;;;;11.10;9.90;;;;;;;10.91;71.61;97197.86;108788;1251;95615;-73
2023/06/19 01:48:27;;;;;;;14.20;10.20;;;;;;;10.87;71.63;97199.55;108946;1250;95888;-74
2023/06/19 01:50:54;;;;;;;13.60;9.80;;;;;;;10.85;71.91;97201.08;108920;1250;95667;-73
2023/06/19 01:53:21;;;;;;;14.30;9.60;;;;;;;10.83;71.94;97199.55;108924;1251;95672;-72
2023/06/19 01:55:47;;;;;;;11.50;10.10;;;;;;;10.82;72.23;97197.56;108890;1250;95912;-73
2023/06/19 01:58:14;;;;;;;14.00;10.20;;;;;;;10.80;72.02;97197.27;108578;1251;95671;-73
2023/06/19 02:00:41;;;;;;;11.60;9.70;;;;;;;10.73;72.12;97198.33;108995;1250;95613;-73
2023/06/19 02:03:07;;;;;;;12.20;10.10;;;;;;;10.68;72.21;97199.35;108876;1251;109723;-75
2023/06/19 02:05:39;;;;;;;13.30;10.70;;;;;;;10.70;72.43;97201.13;108905;1249;96026;-73
2023/06/19 02:08:06;;;;;;;12.70;10.20;;;;;;;10.70;72.33;97200.13;108565;1251;95887;-73
2023/06/19 02:10:33;;;;;;;11.70;10.50;;;;;;;10.67;72.29;97199.77;108840;1251;96194;-73
2023/06/19 02:13:00;;;;;;;11.40;10.20;;;;;;;10.65;72.41;97198.77;108918;1250;95924;-74
2023/06/19 02:15:27;;;;;;;13.40;10.00;;;;;;;10.65;72.29;97200.19;108975;1251;95680;-72
2023/06/19 02:17:56;;;;;;;14.80;10.10;;;;;;;10.63;72.32;97203.81;108939;1251;95882;-72
2023/06/19 02:20:24;;;;;;;10.80;9.70;;;;;;;10.63;72.40;97207.80;108937;1251;95572;-73
2023/06/19 02:22:52;;;;;;;11.90;10.20;;;;;;;10.62;72.48;97208.31;108948;1250;96854;-75
2023/06/19 02:25:19;;;;;;;12.00;10.00;;;;;;;10.61;72.60;97211.15;108909;1250;95869;-74
2023/06/19 02:27:45;;;;;;;10.50;9.30;;;;;;;10.61;72.43;97210.20;108954;1250;96424;-74
2023/06/19 02:30:12;;;;;;;10.80;9.70;;;;;;;10.58;72.48;97209.13;108750;1251;95711;-74
2023/06/19 02:32:39;;;;;;;12.20;9.70;;;;;;;10.56;72.23;97213.33;108841;1251;95901;-73
2023/06/19 02:35:09;;;;;;;11.90;9.50;;;;;;;10.56;72.27;97215.95;108981;1250;96084;-74
2023/06/19 02:37:36;;;;;;;11.20;9.70;;;;;;;10.53;72.33;97215.95;108663;1250;97145;-72
2023/06/19 02:40:05;;;;;;;11.80;9.90;;;;;;;10.51;72.33;97214.26;108948;1249;95729;-72
2023/06/19 02:42:31;;;;;;;13.60;10.00;;;;;;;10.51;72.34;97211.35;108857;1250;108600;-72
2023/06/19 02:45:02;;;;;;;11.70;10.20;;;;;;;10.51;72.51;97210.80;108930;1250;95703;-74
2023/06/19 02:47:33;;;;;;;12.80;9.30;;;;;;;10.49;72.48;97208.14;108946;1250;95978;-74
2023/06/19 02:50:02;;;;;;;12.10;8.90;;;;;;;10.46;72.56;97208.44;108943;1250;103736;-74
2023/06/19 02:52:28;;;;;;;14.60;10.00;;;;;;;10.44;72.48;97213.35;108687;1251;101870;-73
2023/06/19 02:54:55;;;;;;;10.30;9.00;;;;;;;10.42;72.50;97211.06;108779;1249;96033;-74
2023/06/19 02:57:22;;;;;;;11.00;9.70;;;;;;;10.41;72.77;97210.02;108888;1249;96347;-73
2023/06/19 02:59:49;;;;;;;11.10;9.40;;;;;;;10.39;72.69;97206.86;108991;1249;95848;-73
2023/06/19 03:02:16;;;;;;;14.40;9.70;;;;;;;10.39;72.72;97208.02;108974;1250;96121;-73
2023/06/19 03:04:44;;;;;;;10.50;9.30;;;;;;;10.37;72.94;97208.83;109005;1250;95634;-72
2023/06/19 03:07:13;;;;;;;11.00;9.70;;;;;;;10.36;73.13;97209.98;108902;1249;96248;-73
2023/06/19 03:09:40;;;;;;;13.40;10.30;;;;;;;10.36;73.25;97209.40;108944;1251;96074;-74
2023/06/19 03:12:07;;;;;;;10.60;9.50;;;;;;;10.37;73.12;97210.61;108916;1251;95611;-73
2023/06/19 03:14:34;;;;;;;11.40;10.20;;;;;;;10.38;73.16;97214.75;108900;1251;96022;-73
2023/06/19 03:17:00;;;;;;;14.80;10.40;;;;;;;10.40;73.36;97214.69;108554;1251;95807;-74
2023/06/19 03:19:27;;;;;;;13.90;10.00;;;;;;;10.41;73.61;97218.66;108957;1251;95602;-71
2023/06/19 03:21:54;;;;;;;12.10;10.70;;;;;;;10.41;73.56;97219.37;109050;1251;95600;-73
2023/06/19 03:24:20;;;;;;;14.30;12.30;;;;;;;10.43;73.64;97223.93;108920;1249;101360;-74
2023/06/19 03:26:47;;;;;;;19.30;14.10;;;;;;;10.45;73.81;97224.92;108909;1249;95649;-73
2023/06/19 03:29:14;;;;;;;21.80;15.00;;;;;;;10.48;73.66;97225.30;108946;1250;95846;-74
2023/06/19 03:31:40;;;;;;;20.30;14.90;;;;;;;10.48;73.83;97224.38;108935;1249;95681;-72
2023/06/19 03:34:07;;;;;;;18.00;15.00;;;;;;;10.48;73.89;97226.00;109027;1249;95609;-73
2023/06/19 03:36:33;;;;;;;19.70;14.50;;;;;;;10.48;73.97;97224.38;108917;1249;99718;-73
2023/06/19 03:39:00;;;;;;;21.50;14.90;;;;;;;10.48;74.05;97225.95;108688;1251;97120;-72
2023/06/19 03:41:27;;;;;;;16.20;13.60;;;;;;;10.52;74.06;97227.83;108972;1249;95692;-73
2023/06/19 03:43:54;;;;;;;15.30;12.80;;;;;;;10.54;74.16;97227.33;108854;1250;95879;-74
2023/06/19 03:46:20;;;;;;;15.10;12.90;;;;;;;10.56;74.17;97224.66;108741;1251;95767;-73
2023/06/19 03:48:47;;;;;;;15.60;12.60;;;;;;;10.59;74.25;97228.39;108858;1250;95798;-72
2023/06/19 03:51:13;;;;;;;15.80;12.70;;;;;;;10.63;74.37;97233.38;108947;1249;95627;-73
2023/06/19 03:53:40;;;;;;;15.00;12.10;;;;;;;10.66;74.32;97232.58;108782;1251;96260;-72
2023/06/19 03:56:07;;;;;;;15.50;12.10;;;;;;;10.70;74.40;97229.45;108855;1249;95604;-73
2023/06/19 03:58:34;;;;;;;13.90;11.80;;;;;;;10.74;74.64;97232.16;108815;1250;221310;-72
2023/06/19 04:01:00;;;;;;;13.50;11.90;;;;;;;10.78;74.61;97231.22;108678;1251;96113;-72
2023/06/19 04:03:27;;;;;;;15.10;12.10;;;;;;;10.82;74.54;97227.96;108833;1250;95623;-74
2023/06/19 04:05:54;;;;;;;13.20;11.10;;;;;;;10.87;74.92;97224.44;108922;1251;95644;-73
2023/06/19 04:08:20;;;;;;;13.70;11.60;;;;;;;10.94;75.00;97221.50;108925;1250;95837;-73
2023/06/19 04:10:47;;;;;;;14.90;12.10;;;;;;;10.99;74.93;97216.54;109015;1249;95810;-74
2023/06/19 04:13:14;;;;;;;17.10;13.60;;;;;;;11.07;74.96;97218.12;108916;1250;103388;-73
2023/06/19 04:15:43;;;;;;;16.40;13.10;;;;;;;11.12;74.91;97217.20;108887;1250;95706;-73
2023/06/19 04:18:11;;;;;;;17.10;14.40;;;;;;;11.16;75.01;97218.22;108754;1251;100155;-72
2023/06/19 04:20:37;;;;;;;16.90;13.70;;;;;;;11.21;75.11;97217.94;108811;1251;95622;-72
2023/06/19 04:23:04;;;;;;;14.60;13.10;;;;;;;11.25;75.23;97218.55;108857;1250;95864;-74
2023/06/19 04:25:31;;;;;;;16.50;12.60;;;;;;;11.30;75.38;97221.44;108842;1251;96004;-75
2023/06/19 04:27:57;;;;;;;13.30;11.90;;;;;;;11.35;75.43;97225.25;108699;1254;95856;-72
2023/06/19 04:30:24;;;;;;;14.90;11.30;;;;;;;11.39;75.43;97228.91;108806;1251;95642;-72
2023/06/19 04:32:52;;;;;;;15.40;11.90;;;;;;;11.44;75.43;97225.69;108908;1249;95663;-73
2023/06/19 04:35:19;;;;;;;14.60;11.50;;;;;;;11.50;75.49;97228.83;108911;1250;103478;-72
2023/06/19 04:37:48;;;;;;;15.00;12.10;;;;;;;11.55;75.49;97229.87;108920;1249;95612;-72
2023/06/19 04:40:15;;;;;;;15.40;12.20;;;;;;;11.60;75.44;97229.28;108842;1249;100049;-74
2023/06/19 04:42:42;;;;;;;13.80;12.20;;;;;;;11.66;75.55;97225.94;108857;1250;95815;-74
2023/06/19 04:45:09;;;;;;;16.40;12.30;;;;;;;11.71;75.67;97224.98;108856;1251;95714;-72
2023/06/19 04:47:36;;;;;;;15.40;12.40;;;;;;;11.76;75.66;97224.79;108861;1250;96751;-72
2023/06/19 04:50:03;;;;;;;14.10;12.20;;;;;;;11.84;75.67;97225.08;108938;1250;95672;-74
2023/06/19 04:52:32;;;;;;;15.00;12.60;;;;;;;11.90;75.83;97220.23;108957;1250;96691;-73
2023/06/19 04:54:59;;;;;;;14.20;12.70;;;;;;;11.99;75.96;97223.67;108775;1251;96504;-72
2023/06/19 04:57:26;;;;;;;14.60;11.70;;;;;;;12.06;76.05;97220.06;108885;1250;95684;-75
2023/06/19 04:59:53;;;;;;;13.20;11.70;;;;;;;12.14;76.08;97220.18;108874;1249;95943;-72
2023/06/19 05:02:19;;;;;;;21.20;12.80;;;;;;;12.21;76.13;97227.60;108607;1249;95891;-72
2023/06/19 05:04:46;;;;;;;20.80;12.10;;;;;;;12.30;76.38;97229.58;108716;1250;95916;-73
2023/06/19 05:07:15;;;;;;;14.40;12.90;;;;;;;12.38;76.39;97229.81;108904;1250;103561;-72
2023/06/19 05:09:42;;;;;;;14.10;11.70;;;;;;;12.45;76.39;97227.75;108931;1250;101540;-73
2023/06/19 05:12:09;;;;;;;19.60;12.10;;;;;;;12.52;76.43;97225.64;108911;1250;95966;-72
2023/06/19 05:14:36;;;;;;;19.30;12.60;;;;;;;12.60;76.45;97224.40;108633;1251;95673;-72
2023/06/19 05:17:02;;;;;;;13.00;11.70;;;;;;;12.70;76.41;97221.44;108905;1249;95661;-72
2023/06/19 05:19:29;;;;;;;13.10;11.40;;;;;;;12.79;76.50;97221.69;108824;1250;95787;-72
2023/06/19 05:21:56;;;;;;;13.60;11.30;;;;;;;12.87;76.48;97221.05;108846;1249;95714;-74
2023/06/19 05:24:23;;;;;;;13.20;11.10;;;;;;;12.97;76.67;97226.27;108839;1251;95856;-75
2023/06/19 05:26:49;;;;;;;15.60;12.00;;;;;;;13.07;76.46;97224.89;108780;1251;95687;-72
2023/06/19 05:29:16;;;;;;;13.40;11.00;;;;;;;13.18;76.52;97222.17;108885;1250;95667;-73
2023/06/19 05:31:43;;;;;;;13.00;11.10;;;;;;;13.29;76.57;97223.64;108970;1250;95701;-73
2023/06/19 05:34:09;;;;;;;17.10;12.00;;;;;;;13.40;76.50;97226.08;108932;1250;96158;-72
2023/06/19 05:36:36;;;;;;;13.30;11.60;;;;;;;13.51;76.54;97222.86;108841;1250;95994;-72
2023/06/19 05:39:04;;;;;;;14.00;11.40;;;;;;;13.61;76.47;97224.70;108672;1251;95778;-73
2023/06/19 05:41:30;;;;;;;13.40;11.40;;;;;;;13.73;76.57;97228.66;108811;1250;95627;-73
2023/06/19 05:43:57;;;;;;;14.60;12.00;;;;;;;13.83;76.61;97224.68;108785;1251;95893;-73
2023/06/19 05:46:24;;;;;;;12.40;11.10;;;;;;;13.94;76.71;97219.67;108570;1249;96525;-71
2023/06/19 05:48:51;;;;;;;13.70;11.90;;;;;;;14.07;76.87;97220.73;108910;1251;95608;-73
2023/06/19 05:51:17;;;;;;;13.00;11.50;;;;;;;14.20;76.96;97219.91;108805;1251;101238;-74
2023/06/19 05:53:45;;;;;;;11.90;10.70;;;;;;;14.31;76.78;97218.96;108764;1249;96086;-73
2023/06/19 05:56:12;;;;;;;12.90;10.70;;;;;;;14.42;76.73;97222.69;108878;1250;95565;-73
2023/06/19 05:58:39;;;;;;;12.40;10.50;;;;;;;14.54;76.75;97225.71;108935;1250;95715;-73
2023/06/19 06:01:06;;;;;;;12.80;10.60;;;;;;;14.67;76.76;97225.65;108905;1250;95727;-74
2023/06/19 06:03:33;;;;;;;10.50;9.40;;;;;;;14.80;76.62;97223.29;108893;1250;95664;-73
2023/06/19 06:06:03;;;;;;;12.70;9.90;;;;;;;14.92;76.39;97229.66;108914;1251;95649;-73
2023/06/19 06:08:30;;;;;;;11.90;9.40;;;;;;;15.04;76.25;97234.45;108887;1249;95609;-74
2023/06/19 06:10:57;;;;;;;12.80;9.70;;;;;;;15.16;76.08;97234.84;108937;1249;96058;-72
2023/06/19 06:13:24;;;;;;;12.70;9.80;;;;;;;15.28;75.83;97233.42;108899;1250;97071;-72
2023/06/19 06:15:51;;;;;;;11.60;9.90;;;;;;;15.41;75.87;97228.52;108655;1250;95730;-72
2023/06/19 06:18:18;;;;;;;11.70;9.30;;;;;;;15.54;75.86;97227.29;108867;1249;95613;-72
2023/06/19 06:20:45;;;;;;;10.50;9.40;;;;;;;15.67;75.75;97225.33;108574;1252;95848;-75
2023/06/19 06:23:12;;;;;;;10.80;9.70;;;;;;;15.79;75.57;97224.92;108706;1251;95999;-73
2023/06/19 06:25:39;;;;;;;10.90;9.60;;;;;;;15.91;75.40;97221.25;108866;1250;101300;-73
2023/06/19 06:28:06;;;;;;;11.10;8.90;;;;;;;16.03;74.85;97217.92;108808;1251;96017;-73
2023/06/19 06:30:33;;;;;;;10.90;9.00;;;;;;;16.14;74.74;97219.56;108903;1249;95682;-73
2023/06/19 06:32:59;;;;;;;10.20;9.00;;;;;;;16.31;74.55;97218.38;108865;1250;95668;-73
2023/06/19 06:35:26;;;;;;;12.00;10.60;;;;;;;16.45;74.37;97217.17;108962;1250;95723;-73
2023/06/19 06:37:53;;;;;;;10.30;8.70;;;;;;;16.56;74.07;97215.59;108814;1250;99882;-73
2023/06/19 06:40:19;;;;;;;10.00;8.90;;;;;;;16.69;74.00;97219.69;108849;1250;96022;-76
2023/06/19 06:42:47;;;;;;;12.80;9.50;;;;;;;16.82;73.40;97221.32;108868;1251;95933;-73
2023/06/19 06:45:14;;;;;;;11.60;9.00;;;;;;;16.94;73.19;97223.86;108894;1250;95880;-75
2023/06/19 06:47:41;;;;;;;9.60;8.60;;;;;;;17.04;72.99;97222.86;108944;1249;96685;-73
2023/06/19 06:50:09;;;;;;;10.10;9.00;;;;;;;17.17;72.99;97224.31;108754;1251;96469;-74
2023/06/19 06:52:36;;;;;;;9.80;8.40;;;;;;;17.30;72.55;97224.55;108883;1250;96080;-73
2023/06/19 06:55:04;;;;;;;11.20;8.60;;;;;;;17.41;71.87;97222.03;108536;1252;95728;-73
2023/06/19 06:57:31;;;;;;;15.90;9.40;;;;;;;17.52;71.66;97224.64;108848;1250;95647;-73
2023/06/19 06:59:57;;;;;;;10.90;8.60;;;;;;;17.66;71.75;97230.30;108823;1251;96071;-74
2023/06/19 07:02:24;;;;;;;9.00;8.10;;;;;;;17.81;71.92;97230.64;108943;1250;95641;-73
2023/06/19 07:04:52;;;;;;;9.70;8.10;;;;;;;17.94;72.06;97240.15;108840;1250;96377;-73
2023/06/19 07:07:18;;;;;;;9.60;8.40;;;;;;;18.06;71.76;97237.11;108937;1249;95567;-73
2023/06/19 07:09:45;;;;;;;9.30;7.70;;;;;;;18.19;71.40;97230.30;108977;1249;95731;-73
2023/06/19 07:12:12;;;;;;;9.60;8.20;;;;;;;18.32;70.69;97229.29;108894;1250;95538;-75
2023/06/19 07:14:39;;;;;;;8.70;7.40;;;;;;;18.45;70.58;97229.52;108976;1250;95707;-73
2023/06/19 07:17:07;;;;;;;8.70;7.80;;;;;;;18.58;69.97;97228.39;108604;1250;95804;-73
2023/06/19 07:19:33;;;;;;;8.50;7.60;;;;;;;18.71;70.07;97221.58;108934;1250;96343;-72
2023/06/19 07:22:00;;;;;;;9.10;7.20;;;;;;;18.87;69.83;97222.67;108818;1251;95867;-73
2023/06/19 07:24:27;;;;;;;8.50;7.60;;;;;;;19.00;69.23;97217.13;108844;1251;95620;-73
2023/06/19 07:26:54;;;;;;;10.20;7.20;;;;;;;19.15;68.75;97209.89;108863;1251;96581;-74
2023/06/19 07:29:21;;;;;;;11.10;7.60;;;;;;;19.28;68.43;97213.73;108801;1251;101717;-73
2023/06/19 07:31:48;;;;;;;10.60;7.40;;;;;;;19.38;67.68;97216.54;108780;1251;95706;-77
2023/06/19 07:34:15;;;;;;;8.20;7.40;;;;;;;19.49;67.12;97215.05;108784;1251;95623;-76
2023/06/19 07:36:42;;;;;;;8.50;7.00;;;;;;;19.61;66.65;97215.39;108707;1251;96165;-72
2023/06/19 07:39:09;;;;;;;8.90;7.40;;;;;;;19.74;65.90;97211.93;108773;1252;95589;-74
2023/06/19 07:41:37;;;;;;;7.70;6.90;;;;;;;19.87;65.51;97214.56;108800;1253;95995;-74
2023/06/19 07:44:03;;;;;;;8.10;6.90;;;;;;;19.98;64.86;97219.64;108821;1249;96460;-74
2023/06/19 07:46:30;;;;;;;7.80;7.10;;;;;;;20.11;64.61;97219.56;108886;1250;95744;-73
2023/06/19 07:48:57;;;;;;;8.50;6.90;;;;;;;20.26;64.51;97212.90;108850;1251;103599;-76
2023/06/19 07:51:24;;;;;;;8.40;6.70;;;;;;;20.41;64.17;97212.94;108856;1250;95634;-73
2023/06/19 07:53:50;;;;;;;10.50;6.80;;;;;;;20.59;64.16;97216.29;108885;1250;96663;-73
2023/06/19 07:56:17;;;;;;;7.60;6.90;;;;;;;20.79;64.38;97217.36;108850;1250;95712;-77
2023/06/19 07:58:44;;;;;;;7.50;6.80;;;;;;;21.01;64.01;97222.14;109047;1250;96434;-73
2023/06/19 08:01:10;;;;;;;8.60;5.90;;;;;;;21.30;63.24;97224.02;108733;1249;101366;-74
2023/06/19 08:03:37;;;;;;;5.90;5.30;;;;;;;21.67;61.72;97226.13;108869;1250;95605;-75
2023/06/19 08:06:04;;;;;;;5.90;5.40;;;;;;;22.08;60.91;97221.61;108647;1250;95663;-77
2023/06/19 08:08:31;;;;;;;5.50;4.90;;;;;;;22.58;60.23;97218.79;108609;1251;96088;-75
2023/06/19 08:10:58;;;;;;;6.00;5.40;;;;;;;23.14;59.98;97219.48;109053;1250;95642;-75
2023/06/19 08:13:24;;;;;;;5.50;5.00;;;;;;;23.67;58.68;97218.23;108833;1251;100504;-74
2023/06/19 08:15:51;;;;;;;6.00;5.20;;;;;;;24.12;57.29;97213.94;108923;1249;96450;-74
2023/06/19 08:18:18;;;;;;;6.00;5.00;;;;;;;24.53;56.24;97216.23;108909;1250;95559;-74
2023/06/19 08:20:44;;;;;;;5.50;5.00;;;;;;;24.87;55.16;97214.23;108996;1249;95824;-78
2023/06/19 08:23:11;;;;;;;4.50;4.10;;;;;;;25.26;54.43;97206.34;108959;1250;95600;-74
2023/06/19 08:25:38;;;;;;;4.80;4.30;;;;;;;25.67;53.29;97208.05;108677;1251;95552;-72
2023/06/19 08:28:05;;;;;;;4.90;4.40;;;;;;;26.04;53.17;97208.30;108664;1249;95763;-72
2023/06/19 08:30:31;;;;;;;6.30;4.20;;;;;;;26.39;51.48;97209.39;108847;1251;95576;-73
2023/06/19 08:32:58;;;;;;;5.70;4.30;;;;;;;26.71;51.22;97209.44;108842;1250;95735;-73
2023/06/19 08:35:25;;;;;;;4.10;3.80;;;;;;;26.92;49.98;97208.03;108771;1251;95618;-72
2023/06/19 08:37:52;;;;;;;4.70;4.30;;;;;;;27.12;49.00;97209.16;108948;1251;96607;-73
2023/06/19 08:40:20;;;;;;;5.20;4.70;;;;;;;27.43;48.65;97205.79;108870;1251;103674;-72
2023/06/19 08:42:46;;;;;;;5.40;4.30;;;;;;;27.72;47.87;97208.59;108818;1251;101272;-72
2023/06/19 08:45:13;;;;;;;4.40;3.90;;;;;;;28.04;46.96;97211.77;108901;1250;95661;-72
2023/06/19 08:47:40;;;;;;;6.20;4.20;;;;;;;28.36;46.55;97204.08;108964;1249;95663;-75
2023/06/19 08:50:07;;;;;;;4.80;4.00;;;;;;;28.56;46.24;97203.13;108859;1251;96009;-76
2023/06/19 08:52:34;;;;;;;4.50;4.10;;;;;;;28.83;45.53;97205.88;108862;1250;96604;-73
2023/06/19 08:55:01;;;;;;;4.00;3.70;;;;;;;29.06;45.18;97202.04;108961;1250;95926;-77
2023/06/19 08:57:40;;;;;;;5.20;4.20;;;;;;;29.43;44.80;97203.98;108752;1251;95590;-75
2023/06/19 09:00:10;;;;;;;4.20;3.90;;;;;;;29.71;43.51;97204.13;108954;1250;95626;-74
2023/06/19 09:02:42;;;;;;;4.60;4.10;;;;;;;30.00;43.15;97199.10;108918;1250;102231;-73
2023/06/19 09:05:17;;;;;;;4.30;3.90;;;;;;;30.34;42.19;97201.27;108564;1251;101296;-76
2023/06/19 09:07:57;;;;;;;5.50;3.90;;;;;;;30.57;41.95;97201.20;108912;1251;99979;-73
2023/06/19 09:10:24;;;;;;;5.20;4.10;;;;;;;30.76;41.36;97199.30;108628;1251;95717;-73
2023/06/19 09:13:02;;;;;;;4.70;4.10;;;;;;;30.98;40.66;97200.35;108895;1251;95759;-74
2023/06/19 09:15:39;;;;;;;4.70;4.20;;;;;;;31.24;40.26;97197.71;108779;1251;103671;-73
2023/06/19 09:18:11;;;;;;;4.50;4.10;;;;;;;31.40;39.36;97193.59;108882;1251;101255;-74
2023/06/19 09:20:43;;;;;;;10.30;4.10;;;;;;;31.57;38.67;97192.45;108921;1250;99921;-75
2023/06/19 09:23:12;;;;;;;5.10;4.10;;;;;;;31.73;38.52;97191.66;108914;1250;95656;-70
2023/06/19 09:25:52;;;;;;;4.50;4.00;;;;;;;31.82;38.43;97194.16;108909;1250;95649;-74
2023/06/19 09:28:21;;;;;;;3.70;3.40;;;;;;;31.81;37.41;97194.13;109017;1249;102318;-73
2023/06/19 09:30:59;;;;;;;3.90;3.60;;;;;;;31.55;37.40;97192.72;108993;1250;101327;-74
2023/06/19 09:33:31;;;;;;;4.20;3.80;;;;;;;31.10;37.13;97186.65;108651;1249;100101;-77
2023/06/19 09:36:00;;;;;;;4.30;4.00;;;;;;;31.08;37.13;97187.48;108903;1249;95608;-76
2023/06/19 09:38:31;;;;;;;5.40;4.40;;;;;;;31.33;37.11;97186.44;108977;1251;96103;-73
2023/06/19 09:41:02;;;;;;;3.80;3.50;;;;;;;31.50;36.92;97184.08;108902;1251;103665;-73
2023/06/19 09:43:38;;;;;;;3.80;3.50;;;;;;;31.55;36.76;97185.13;108868;1249;101169;-73
2023/06/19 09:46:06;;;;;;;4.00;3.70;;;;;;;31.52;37.03;97182.16;108554;1249;99983;-75
2023/06/19 09:48:35;;;;;;;4.90;4.40;;;;;;;31.56;36.70;97180.23;108843;1251;95562;-76
2023/06/19 09:51:22;;;;;;;6.30;4.40;;;;;;;31.37;35.65;97180.59;108869;1249;95780;-75
2023/06/19 09:53:50;;;;;;;4.60;4.20;;;;;;;31.15;35.40;97180.54;108904;1250;103480;-73
2023/06/19 09:56:21;;;;;;;4.70;4.20;;;;;;;31.01;35.57;97173.55;108917;1250;101750;-73
2023/06/19 09:58:51;;;;;;;4.80;4.40;;;;;;;31.08;35.61;97178.39;108833;1251;100062;-73
2023/06/19 10:01:19;;;;;;;18.20;5.40;;;;;;;31.27;35.33;97178.77;108916;1249;95543;-73
2023/06/19 10:03:46;;;;;;;4.70;4.10;;;;;;;31.46;34.95;97178.09;108780;1250;95799;-74
2023/06/19 10:06:19;;;;;;;4.90;4.50;;;;;;;31.64;34.54;97176.63;108940;1250;95712;-74
2023/06/19 10:08:46;;;;;;;6.10;4.20;;;;;;;31.66;34.39;97174.31;108974;1250;101543;-73
2023/06/19 10:11:14;;;;;;;5.00;3.90;;;;;;;31.64;34.11;97172.50;108668;1249;95654;-72
2023/06/19 10:13:42;;;;;;;4.30;4.00;;;;;;;31.68;34.27;97172.86;108936;1253;95536;-76
2023/06/19 10:16:23;;;;;;;4.30;4.00;;;;;;;31.54;34.61;97168.36;108981;1251;95610;-74
2023/06/19 10:18:51;;;;;;;4.40;3.90;;;;;;;31.33;34.71;97165.08;108974;1251;103576;-73
2023/06/19 10:21:21;;;;;;;4.30;3.90;;;;;;;31.36;34.82;97164.08;108975;1250;101511;-73
2023/06/19 10:23:58;;;;;;;5.20;4.00;;;;;;;31.32;34.61;97164.08;108885;1250;99888;-73
2023/06/19 10:26:40;;;;;;;4.20;3.90;;;;;;;31.29;34.61;97159.22;108908;1250;95817;-74
2023/06/19 10:29:17;;;;;;;4.50;4.10;;;;;;;31.32;34.52;97160.89;108974;1250;95908;-73
2023/06/19 10:31:45;;;;;;;5.00;4.20;;;;;;;31.39;34.74;97161.98;108581;1250;103606;-74
2023/06/19 10:34:12;;;;;;;5.30;3.80;;;;;;;31.52;34.16;97166.46;108791;1251;101354;-74
2023/06/19 10:36:39;;;;;;;4.70;4.30;;;;;;;31.72;33.90;97165.34;108872;1250;95782;-74
2023/06/19 10:39:06;;;;;;;4.50;4.00;;;;;;;31.84;34.39;97164.64;108893;1251;95788;-74
2023/06/19 10:41:33;;;;;;;6.00;4.20;;;;;;;31.79;34.61;97161.77;108898;1251;95663;-74
2023/06/19 10:44:05;;;;;;;4.80;4.30;;;;;;;31.72;34.48;97156.55;108920;1251;97123;-74
2023/06/19 10:46:35;;;;;;;4.70;3.90;;;;;;;31.67;34.18;97154.96;108885;1251;100972;-75
2023/06/19 10:49:04;;;;;;;4.70;3.80;;;;;;;31.84;33.51;97160.23;108776;1251;99670;-74
2023/06/19 10:52:00;;;;;;;4.20;3.80;;;;;;;32.06;32.96;97157.52;108856;1250;95658;-74
2023/06/19 10:54:44;;;;;;;3.90;3.60;;;;;;;32.17;32.75;97156.23;108911;1251;95602;-74
2023/06/19 10:57:13;;;;;;;3.90;3.60;;;;;;;32.30;32.57;97152.61;108821;1250;96215;-74
2023/06/19 10:59:40;;;;;;;5.60;4.10;;;;;;;32.52;32.32;97152.45;108486;1252;101239;-75
2023/06/19 11:02:21;;;;;;;4.80;4.10;;;;;;;32.66;31.88;97146.02;108495;1250;96099;-75
2023/06/19 11:04:48;;;;;;;;;;;;;;;32.70;31.88;97146.14;108981;1249;95909;-76
2023/06/19 11:07:15;;;;;;;4.30;3.80;;;;;;;32.59;31.58;97144.58;108948;1250;95683;-73
2023/06/19 11:09:42;;;;;;;5.70;3.40;;;;;;;32.52;31.52;97149.36;108920;1251;96039;-75
2023/06/19 11:12:09;;;;;;;4.30;4.00;;;;;;;32.62;31.70;97143.69;108774;1250;95781;-74
2023/06/19 11:14:39;;;;;;;5.30;3.50;;;;;;;32.51;31.54;97153.86;108640;1251;95864;-74
2023/06/19 11:17:07;;;;;;;3.90;3.60;;;;;;;32.50;31.10;97152.17;108888;1250;95867;-74
2023/06/19 11:19:34;;;;;;;4.60;4.00;;;;;;;32.64;30.48;97146.05;108927;1251;97130;-74
2023/06/19 11:22:03;;;;;;;4.30;4.00;;;;;;;32.70;31.07;97142.30;108916;1251;95669;-74